createdAt,value
2023-02-03T01:14:08.110Z,39.30
2023-02-03T01:18:12.483Z,46.03
2023-02-03T01:22:15.254Z,41.83
2023-02-03T01:26:20.647Z,42.33
2023-02-03T01:30:23.970Z,33.92
2023-02-03T01:34:26.823Z,40.95
2023-02-03T01:38:29.524Z,40.60
2023-02-03T01:42:33.972Z,40.80
2023-02-03T01:46:48.444Z,41.10
2023-02-03T01:50:51.362Z,36.90
2023-02-03T01:54:56.847Z,38.60
2023-02-03T01:59:00.984Z,35.47
2023-02-03T02:03:05.973Z,39.65
2023-02-03T02:07:10.146Z,35.28
2023-02-03T02:11:16.217Z,43.65
2023-02-03T02:15:24.724Z,32.47
2023-02-03T02:19:53.277Z,39.58
2023-02-03T02:24:11.363Z,43.05
2023-02-03T02:28:34.467Z,43.42
2023-02-03T02:32:37.579Z,39.83
2023-02-03T02:37:00.776Z,36.60
2023-02-03T02:41:13.563Z,33.50
2023-02-03T02:45:26.698Z,33.83
2023-02-03T02:49:39.837Z,35.55
2023-02-03T02:54:00.726Z,28.83
2023-02-03T02:58:11.570Z,26.13
2023-02-03T03:02:14.962Z,24.27
2023-02-03T03:06:48.348Z,23.55
2023-02-03T03:10:53.540Z,19.65
2023-02-03T03:19:17.397Z,34.65
2023-02-03T03:23:33.632Z,27.75
2023-02-03T03:27:41.828Z,30.90
2023-02-03T03:31:45.592Z,28.52
2023-02-03T03:36:20.211Z,35.40
2023-02-03T03:40:29.481Z,29.40
2023-02-03T03:44:40.104Z,33.95
2023-02-03T03:49:00.394Z,18.67
2023-02-03T03:53:06.964Z,26.65
2023-02-03T03:57:19.098Z,31.95
2023-02-03T04:01:23.851Z,34.60
2023-02-03T04:05:27.859Z,32.70
2023-02-03T04:09:30.699Z,25.73
2023-02-03T04:13:33.486Z,39.63
2023-02-03T04:17:36.776Z,37.88
2023-02-03T04:21:39.943Z,38.83
2023-02-03T04:25:42.659Z,38.58
2023-02-03T04:29:47.728Z,33.17
2023-02-03T04:33:50.487Z,33.25
2023-02-03T04:37:53.446Z,33.42
2023-02-03T04:41:56.354Z,31.65
2023-02-03T04:46:01.096Z,35.13
2023-02-03T04:50:04.208Z,34.28
2023-02-03T04:54:07.546Z,31.65
2023-02-03T04:58:10.270Z,31.20
2023-02-03T05:02:13.005Z,31.35
2023-02-03T05:06:15.760Z,34.95
2023-02-03T05:10:21.995Z,37.42
2023-02-03T05:14:24.655Z,39.47
2023-02-03T05:18:27.808Z,35.22
2023-02-03T05:22:30.534Z,41.90
2023-02-03T05:26:34.494Z,37.00
2023-02-03T05:30:37.407Z,38.55
2023-02-03T05:34:42.408Z,49.25
2023-02-03T05:38:45.187Z,44.95
2023-02-03T05:42:51.431Z,41.40
2023-02-03T05:46:57.033Z,45.72
2023-02-03T05:51:01.715Z,40.92
2023-02-03T05:55:05.441Z,46.17
2023-02-03T05:59:08.129Z,49.58
2023-02-03T06:03:11.016Z,53.92
2023-02-03T06:07:14.780Z,43.97
2023-02-03T06:11:17.753Z,45.65
2023-02-03T06:15:20.521Z,51.67
2023-02-03T06:19:23.806Z,41.35
2023-02-03T06:23:26.825Z,50.58
2023-02-03T06:27:29.675Z,45.15
2023-02-03T06:31:32.463Z,44.35
2023-02-03T06:35:35.787Z,46.90
2023-02-03T06:39:38.555Z,46.35
2023-02-03T06:43:41.442Z,45.35
2023-02-03T06:47:45.545Z,41.33
2023-02-03T06:51:48.765Z,41.13
2023-02-03T06:55:52.032Z,39.83
2023-02-03T06:59:55.156Z,45.50
2023-02-03T07:03:58.966Z,45.42
2023-02-03T07:08:01.713Z,44.58
2023-02-03T07:12:05.295Z,43.40
2023-02-03T07:16:08.149Z,47.65
2023-02-03T07:20:11.420Z,43.78
2023-02-03T07:24:14.684Z,51.88
2023-02-03T07:28:17.662Z,47.22
2023-02-03T07:32:20.679Z,40.65
2023-02-03T07:36:24.392Z,42.42
2023-02-03T07:40:27.472Z,48.60
2023-02-03T07:44:30.423Z,52.28
2023-02-03T07:48:33.251Z,56.05
2023-02-03T07:52:36.075Z,61.13
2023-02-03T07:56:38.862Z,53.30
2023-02-03T08:00:41.653Z,55.10
2023-02-03T08:04:44.622Z,45.97
2023-02-03T08:08:47.572Z,51.30
2023-02-03T08:12:53.767Z,40.22
2023-02-03T08:16:56.679Z,45.08
2023-02-03T08:20:59.487Z,52.33
2023-02-03T08:25:02.509Z,46.13
2023-02-03T08:29:05.559Z,42.15
2023-02-03T08:33:08.418Z,43.30
2023-02-03T08:37:12.835Z,43.80
2023-02-03T08:41:18.434Z,79.63
2023-02-03T08:49:27.852Z,57.90
2023-02-03T08:53:30.603Z,45.90
2023-02-03T08:57:35.045Z,98.45
2023-02-03T09:01:37.813Z,103.60
2023-02-03T09:05:41.519Z,46.92
2023-02-03T09:09:44.559Z,26.77
2023-02-03T09:13:48.660Z,40.95
2023-02-03T09:17:51.409Z,36.30
2023-02-03T09:21:54.259Z,33.45
2023-02-03T09:26:05.231Z,31.52
2023-02-03T09:30:08.416Z,16.80
2023-02-03T09:34:11.311Z,13.73
2023-02-03T09:38:14.164Z,9.20
2023-02-03T09:42:59.848Z,10.50
2023-02-03T09:47:26.959Z,10.50
2023-02-03T09:51:55.285Z,28.05
2023-02-03T09:55:59.669Z,29.20
2023-02-03T10:00:10.542Z,29.35
2023-02-03T10:04:27.888Z,28.05
2023-02-03T10:08:47.113Z,29.80
2023-02-03T10:13:04.934Z,23.17
2023-02-03T10:17:20.978Z,22.33
2023-02-03T10:21:42.996Z,21.95
2023-02-03T10:25:57.281Z,19.48
2023-02-03T10:30:28.185Z,21.10
2023-02-03T10:34:31.345Z,23.10
2023-02-03T10:38:53.080Z,20.73
2023-02-03T10:43:14.704Z,21.08
2023-02-03T10:47:36.335Z,21.65
2023-02-03T10:51:50.393Z,14.90
2023-02-03T10:56:02.020Z,19.23
2023-02-03T11:00:09.451Z,14.23
2023-02-03T11:04:32.032Z,15.80
2023-02-03T11:08:36.854Z,15.40
2023-02-03T11:12:39.630Z,12.55
2023-02-03T11:16:44.617Z,14.35
2023-02-03T11:20:47.525Z,15.32
2023-02-03T11:24:50.306Z,14.30
2023-02-03T11:28:56.478Z,9.55
2023-02-03T11:33:03.171Z,7.90
2023-02-03T11:37:24.174Z,9.25
2023-02-03T11:41:36.539Z,9.18
2023-02-03T11:45:45.823Z,11.32
2023-02-03T11:49:51.606Z,10.27
2023-02-03T11:54:28.615Z,10.68
2023-02-03T11:58:31.436Z,9.98
2023-02-03T12:02:40.241Z,10.57
2023-02-03T12:07:04.691Z,8.93
2023-02-03T12:11:47.002Z,9.23
2023-02-03T12:16:01.705Z,13.45
2023-02-03T12:20:23.290Z,8.85
2023-02-03T12:24:29.057Z,8.73
2023-02-03T12:28:50.596Z,7.90
2023-02-03T12:33:00.639Z,7.88
2023-02-03T12:37:36.849Z,8.50
2023-02-03T12:41:48.031Z,8.35
2023-02-03T12:45:58.303Z,8.80
2023-02-03T12:50:13.510Z,7.15
2023-02-03T12:54:34.951Z,7.55
2023-02-03T12:58:42.137Z,8.98
2023-02-03T13:03:04.157Z,11.25
2023-02-03T13:07:24.820Z,10.73
2023-02-03T13:11:53.123Z,9.32
2023-02-03T13:15:58.681Z,10.70
2023-02-03T13:20:10.168Z,8.75
2023-02-03T13:24:13.358Z,9.43
2023-02-03T13:28:28.130Z,9.48
2023-02-03T13:32:59.390Z,9.98
2023-02-03T13:37:31.906Z,10.30
2023-02-03T13:41:48.355Z,8.70
2023-02-03T13:45:53.352Z,7.95
2023-02-03T13:50:01.291Z,7.53
2023-02-03T13:54:14.403Z,8.48
2023-02-03T13:58:24.485Z,8.90
2023-02-03T14:02:27.511Z,9.02
2023-02-03T14:06:39.099Z,8.90
2023-02-03T14:10:42.368Z,7.45
2023-02-03T14:14:51.301Z,9.65
2023-02-03T14:18:56.610Z,9.77
2023-02-03T14:23:05.118Z,13.68
2023-02-03T14:27:24.739Z,8.75
2023-02-03T14:31:28.845Z,11.05
2023-02-03T14:35:42.424Z,11.35
2023-02-03T14:39:57.258Z,6.68
2023-02-03T14:44:15.816Z,9.85
2023-02-03T14:48:37.299Z,10.85
2023-02-03T14:52:57.599Z,11.23
2023-02-03T14:57:49.129Z,11.35
2023-02-03T15:01:51.984Z,10.05
2023-02-03T15:06:01.665Z,10.57
2023-02-03T15:10:13.215Z,9.55
2023-02-03T15:14:32.523Z,9.45
2023-02-03T15:18:36.715Z,9.68
2023-02-03T15:22:40.279Z,12.75
2023-02-03T15:26:51.534Z,10.85
2023-02-03T15:31:21.370Z,12.48
2023-02-03T15:35:27.780Z,12.13
2023-02-03T15:40:01.339Z,9.38
2023-02-03T15:44:12.649Z,7.22
2023-02-03T15:48:23.133Z,11.88
2023-02-03T15:52:29.069Z,10.25
2023-02-03T15:56:43.674Z,10.80
2023-02-03T16:00:52.620Z,10.95
2023-02-03T16:04:55.618Z,9.73
2023-02-03T16:08:59.724Z,11.82
2023-02-03T16:13:22.901Z,9.60
2023-02-03T16:17:37.115Z,6.57
2023-02-03T16:21:49.691Z,6.88
2023-02-03T16:26:05.962Z,8.38
2023-02-03T16:30:30.184Z,7.88
2023-02-03T16:34:51.388Z,12.25
2023-02-03T16:39:12.441Z,7.30
2023-02-03T16:43:35.068Z,10.18
2023-02-03T16:47:57.860Z,9.13
2023-02-03T16:52:01.618Z,9.70
2023-02-03T16:56:05.310Z,14.13
2023-02-03T17:00:11.799Z,7.20
2023-02-03T17:04:14.454Z,10.23
2023-02-03T17:08:19.176Z,8.55
2023-02-03T17:12:21.940Z,8.75
2023-02-03T17:16:26.833Z,9.60
2023-02-03T17:20:29.722Z,7.25
2023-02-03T17:24:32.787Z,8.73
2023-02-03T17:28:36.443Z,10.82
2023-02-03T17:32:39.222Z,39.30
2023-02-03T17:36:41.886Z,27.98
2023-02-03T17:53:49.402Z,18.50
2023-02-03T17:57:52.135Z,14.88
2023-02-03T18:01:55.865Z,17.90
2023-02-03T18:06:15.649Z,20.08
2023-02-03T18:10:18.437Z,20.27
2023-02-03T18:14:21.138Z,16.90
2023-02-03T18:18:25.989Z,18.25
2023-02-03T18:22:34.691Z,16.27
2023-02-03T18:26:50.978Z,17.17
2023-02-03T18:31:09.682Z,22.45
2023-02-03T18:35:19.816Z,13.88
2023-02-03T18:39:22.547Z,14.82
2023-02-03T18:43:25.334Z,15.52
2023-02-03T18:47:28.355Z,15.80
2023-02-03T18:51:31.185Z,10.65
2023-02-03T18:55:34.162Z,15.27
2023-02-03T18:59:37.113Z,11.43
2023-02-03T19:03:40.229Z,13.25
2023-02-03T19:07:42.864Z,12.10
2023-02-03T19:11:45.973Z,11.57
2023-02-03T19:15:49.503Z,17.27
2023-02-03T19:19:52.601Z,12.20
2023-02-03T19:23:55.940Z,9.30
2023-02-03T19:27:58.679Z,9.95
2023-02-03T19:32:01.543Z,11.32
2023-02-03T19:36:07.877Z,9.35
2023-02-03T19:40:11.416Z,13.43
2023-02-03T19:44:14.616Z,10.93
2023-02-03T19:48:17.280Z,10.60
2023-02-03T19:52:19.966Z,8.00
2023-02-03T19:56:22.759Z,10.32
2023-02-03T20:00:26.603Z,9.95
2023-02-03T20:04:29.863Z,11.10
2023-02-03T20:08:32.640Z,8.52
2023-02-03T20:12:35.377Z,10.80
2023-02-03T20:16:38.360Z,10.43
2023-02-03T20:20:41.386Z,9.35
2023-02-03T20:24:44.241Z,8.02
2023-02-03T20:28:47.804Z,12.38
2023-02-03T20:32:50.566Z,9.10
2023-02-03T20:36:55.937Z,11.77
2023-02-03T20:40:58.941Z,12.43
2023-02-03T20:45:02.033Z,15.60
2023-02-03T20:49:05.998Z,9.30
2023-02-03T20:53:14.042Z,12.10
2023-02-03T20:57:19.317Z,10.38
2023-02-03T21:01:22.828Z,12.07
2023-02-03T21:05:28.153Z,14.38
2023-02-03T21:09:30.924Z,8.68
2023-02-03T21:13:36.328Z,10.15
2023-02-03T21:17:39.482Z,9.55
2023-02-03T21:21:42.616Z,9.63
2023-02-03T21:25:45.853Z,8.05
2023-02-03T21:29:50.372Z,7.43
2023-02-03T21:33:55.146Z,8.88
2023-02-03T21:38:02.408Z,9.80
2023-02-03T21:42:41.437Z,10.50
2023-02-03T21:46:44.275Z,9.43
2023-02-03T21:50:47.074Z,8.50
2023-02-03T21:54:49.818Z,9.85
2023-02-03T21:58:55.285Z,10.30
2023-02-03T22:03:00.650Z,10.35
2023-02-03T22:07:15.333Z,8.90
2023-02-03T22:11:19.715Z,10.40
2023-02-03T22:15:22.545Z,8.40
2023-02-03T22:19:25.826Z,7.75
2023-02-03T22:23:29.002Z,10.68
2023-02-03T22:27:32.662Z,9.98
2023-02-03T22:31:35.535Z,13.38
2023-02-03T22:35:38.324Z,5.88
2023-02-03T22:39:41.139Z,8.07
2023-02-03T22:43:44.003Z,9.00
2023-02-03T22:47:46.738Z,6.88
2023-02-03T22:51:49.437Z,7.72
2023-02-03T22:55:52.317Z,7.68
2023-02-03T22:59:55.021Z,10.82
2023-02-03T23:03:57.709Z,10.60
2023-02-03T23:08:01.145Z,7.03
2023-02-03T23:12:04.205Z,6.70
2023-02-03T23:16:07.104Z,7.60
2023-02-03T23:20:12.297Z,8.98
2023-02-03T23:24:17.381Z,9.68
2023-02-03T23:28:20.281Z,7.63
2023-02-03T23:32:23.467Z,11.25
2023-02-03T23:36:26.326Z,10.35
2023-02-03T23:40:29.644Z,6.25
2023-02-03T23:44:32.550Z,8.80
2023-02-03T23:48:35.311Z,5.68
2023-02-03T23:52:38.163Z,8.98
2023-02-03T23:56:40.954Z,6.78
